sensor_id;sensor_type;location;lat;lon;timestamp;temperature;humidity
33741;DHT22;20065;48.380;10.892;2022-12-19T00:00:47;-3.10;99.90
33741;DHT22;20065;48.380;10.892;2022-12-19T00:03:34;-3.00;99.90
33741;DHT22;20065;48.380;10.892;2022-12-19T00:06:21;-3.00;99.90
33741;DHT22;20065;48.380;10.892;2022-12-19T00:09:08;-3.00;99.90
33741;DHT22;20065;48.380;10.892;2022-12-19T00:12:03;-3.00;99.90
33741;DHT22;20065;48.380;10.892;2022-12-19T00:15:01;-3.00;99.90
33741;DHT22;20065;48.380;10.892;2022-12-19T00:17:57;-2.90;99.90
33741;DHT22;20065;48.380;10.892;2022-12-19T00:20:43;-3.00;99.90
33741;DHT22;20065;48.380;10.892;2022-12-19T00:23:32;-3.00;99.90
33741;DHT22;20065;48.380;10.892;2022-12-19T00:26:19;-2.90;99.90
33741;DHT22;20065;48.380;10.892;2022-12-19T00:29:08;-2.90;99.90
33741;DHT22;20065;48.380;10.892;2022-12-19T00:31:55;-2.90;99.90
33741;DHT22;20065;48.380;10.892;2022-12-19T00:34:41;-2.80;99.90
33741;DHT22;20065;48.380;10.892;2022-12-19T00:37:27;-2.80;99.90
33741;DHT22;20065;48.380;10.892;2022-12-19T00:40:15;-2.80;99.90
33741;DHT22;20065;48.380;10.892;2022-12-19T00:43:14;-2.70;99.90
33741;DHT22;20065;48.380;10.892;2022-12-19T00:46:02;-2.80;99.90
33741;DHT22;20065;48.380;10.892;2022-12-19T00:48:48;-2.80;99.90
33741;DHT22;20065;48.380;10.892;2022-12-19T00:51:35;-2.70;99.90
33741;DHT22;20065;48.380;10.892;2022-12-19T00:54:23;-2.70;99.90
33741;DHT22;20065;48.380;10.892;2022-12-19T00:57:10;-2.70;99.90
33741;DHT22;20065;48.380;10.892;2022-12-19T00:59:56;-2.70;99.90
33741;DHT22;20065;48.380;10.892;2022-12-19T01:02:44;-2.70;99.90
33741;DHT22;20065;48.380;10.892;2022-12-19T01:05:31;-2.70;99.90
33741;DHT22;20065;48.380;10.892;2022-12-19T01:08:17;-2.70;99.90
33741;DHT22;20065;48.380;10.892;2022-12-19T01:11:04;-2.80;99.90
33741;DHT22;20065;48.380;10.892;2022-12-19T01:13:51;-2.80;99.90
33741;DHT22;20065;48.380;10.892;2022-12-19T01:16:37;-2.80;99.90
33741;DHT22;20065;48.380;10.892;2022-12-19T01:19:25;-2.80;99.90
33741;DHT22;20065;48.380;10.892;2022-12-19T01:22:12;-2.70;99.90
33741;DHT22;20065;48.380;10.892;2022-12-19T01:24:58;-2.60;99.90
33741;DHT22;20065;48.380;10.892;2022-12-19T01:27:47;-2.60;99.90
33741;DHT22;20065;48.380;10.892;2022-12-19T01:30:33;-2.60;99.90
33741;DHT22;20065;48.380;10.892;2022-12-19T01:33:20;-2.60;99.90
33741;DHT22;20065;48.380;10.892;2022-12-19T01:36:07;-2.50;99.90
33741;DHT22;20065;48.380;10.892;2022-12-19T01:38:56;-2.50;99.90
33741;DHT22;20065;48.380;10.892;2022-12-19T01:41:42;-2.40;99.90
33741;DHT22;20065;48.380;10.892;2022-12-19T01:44:30;-2.50;99.90
33741;DHT22;20065;48.380;10.892;2022-12-19T01:47:16;-2.50;99.90
33741;DHT22;20065;48.380;10.892;2022-12-19T01:50:03;-2.50;99.90
33741;DHT22;20065;48.380;10.892;2022-12-19T01:52:50;-2.50;99.90
33741;DHT22;20065;48.380;10.892;2022-12-19T01:55:38;-2.60;99.90
33741;DHT22;20065;48.380;10.892;2022-12-19T01:58:25;-2.50;99.90
33741;DHT22;20065;48.380;10.892;2022-12-19T02:01:13;-2.50;99.90
33741;DHT22;20065;48.380;10.892;2022-12-19T02:04:01;-2.50;99.90
33741;DHT22;20065;48.380;10.892;2022-12-19T02:06:49;-2.60;99.90
33741;DHT22;20065;48.380;10.892;2022-12-19T02:09:36;-2.60;99.90
33741;DHT22;20065;48.380;10.892;2022-12-19T02:12:25;-2.70;99.90
33741;DHT22;20065;48.380;10.892;2022-12-19T02:15:14;-2.60;99.90
33741;DHT22;20065;48.380;10.892;2022-12-19T02:18:17;-2.70;99.90
33741;DHT22;20065;48.380;10.892;2022-12-19T02:24:53;-2.90;99.90
33741;DHT22;20065;48.380;10.892;2022-12-19T02:31:13;-2.90;99.90
33741;DHT22;20065;48.380;10.892;2022-12-19T02:37:55;-2.80;99.90
33741;DHT22;20065;48.380;10.892;2022-12-19T02:41:00;-2.90;99.90
33741;DHT22;20065;48.380;10.892;2022-12-19T02:43:51;-2.80;99.90
33741;DHT22;20065;48.380;10.892;2022-12-19T02:46:45;-2.80;99.90
33741;DHT22;20065;48.380;10.892;2022-12-19T02:49:33;-2.70;99.90
33741;DHT22;20065;48.380;10.892;2022-12-19T02:55:14;-2.70;99.90
33741;DHT22;20065;48.380;10.892;2022-12-19T03:10:17;-2.50;99.90
33741;DHT22;20065;48.380;10.892;2022-12-19T03:13:25;-2.50;99.90
33741;DHT22;20065;48.380;10.892;2022-12-19T03:16:14;-2.50;99.90
33741;DHT22;20065;48.380;10.892;2022-12-19T03:19:00;-2.60;99.90
33741;DHT22;20065;48.380;10.892;2022-12-19T03:21:47;-2.70;99.90
33741;DHT22;20065;48.380;10.892;2022-12-19T03:24:34;-2.70;99.90
33741;DHT22;20065;48.380;10.892;2022-12-19T03:27:26;-2.70;99.90
33741;DHT22;20065;48.380;10.892;2022-12-19T03:30:13;-2.60;99.90
33741;DHT22;20065;48.380;10.892;2022-12-19T03:33:00;-2.60;99.90
33741;DHT22;20065;48.380;10.892;2022-12-19T03:35:48;-2.60;99.90
33741;DHT22;20065;48.380;10.892;2022-12-19T03:38:36;-2.70;99.90
33741;DHT22;20065;48.380;10.892;2022-12-19T03:41:24;-2.80;99.90
33741;DHT22;20065;48.380;10.892;2022-12-19T03:44:35;-2.90;99.90
33741;DHT22;20065;48.380;10.892;2022-12-19T03:47:36;-2.90;99.90
33741;DHT22;20065;48.380;10.892;2022-12-19T03:50:24;-2.90;99.90
33741;DHT22;20065;48.380;10.892;2022-12-19T04:02:26;-2.70;99.90
33741;DHT22;20065;48.380;10.892;2022-12-19T04:05:22;-2.70;99.90
33741;DHT22;20065;48.380;10.892;2022-12-19T04:08:12;-2.60;99.90
33741;DHT22;20065;48.380;10.892;2022-12-19T04:11:07;-2.70;99.90
33741;DHT22;20065;48.380;10.892;2022-12-19T04:14:03;-2.60;99.90
33741;DHT22;20065;48.380;10.892;2022-12-19T04:22:57;-2.60;99.90
33741;DHT22;20065;48.380;10.892;2022-12-19T04:25:49;-2.60;99.90
33741;DHT22;20065;48.380;10.892;2022-12-19T04:28:41;-2.60;99.90
33741;DHT22;20065;48.380;10.892;2022-12-19T04:31:30;-2.50;99.90
33741;DHT22;20065;48.380;10.892;2022-12-19T04:34:18;-2.50;99.90
33741;DHT22;20065;48.380;10.892;2022-12-19T04:37:05;-2.40;99.90
33741;DHT22;20065;48.380;10.892;2022-12-19T04:39:52;-2.40;99.90
33741;DHT22;20065;48.380;10.892;2022-12-19T04:42:38;-2.40;99.90
33741;DHT22;20065;48.380;10.892;2022-12-19T04:45:25;-2.40;99.90
33741;DHT22;20065;48.380;10.892;2022-12-19T04:48:11;-2.50;99.90
33741;DHT22;20065;48.380;10.892;2022-12-19T04:50:57;-2.40;99.90
33741;DHT22;20065;48.380;10.892;2022-12-19T04:53:43;-2.30;99.90
33741;DHT22;20065;48.380;10.892;2022-12-19T04:56:29;-2.30;99.90
33741;DHT22;20065;48.380;10.892;2022-12-19T04:59:15;-2.30;99.90
33741;DHT22;20065;48.380;10.892;2022-12-19T05:02:02;-2.20;99.90
33741;DHT22;20065;48.380;10.892;2022-12-19T05:04:48;-2.20;99.90
33741;DHT22;20065;48.380;10.892;2022-12-19T05:07:34;-2.20;99.90
33741;DHT22;20065;48.380;10.892;2022-12-19T05:10:21;-2.20;99.90
33741;DHT22;20065;48.380;10.892;2022-12-19T05:13:07;-2.20;99.90
33741;DHT22;20065;48.380;10.892;2022-12-19T05:15:58;-2.30;99.90
33741;DHT22;20065;48.380;10.892;2022-12-19T05:18:44;-2.20;99.90
33741;DHT22;20065;48.380;10.892;2022-12-19T05:21:31;-2.20;99.90
33741;DHT22;20065;48.380;10.892;2022-12-19T05:24:20;-2.20;99.90
33741;DHT22;20065;48.380;10.892;2022-12-19T05:27:06;-2.10;99.90
33741;DHT22;20065;48.380;10.892;2022-12-19T05:29:53;-2.10;99.90
33741;DHT22;20065;48.380;10.892;2022-12-19T05:32:39;-2.10;99.90
33741;DHT22;20065;48.380;10.892;2022-12-19T05:35:25;-2.20;99.90
33741;DHT22;20065;48.380;10.892;2022-12-19T05:38:11;-2.20;99.90
33741;DHT22;20065;48.380;10.892;2022-12-19T05:40:57;-2.10;99.90
33741;DHT22;20065;48.380;10.892;2022-12-19T05:43:48;-2.10;99.90
33741;DHT22;20065;48.380;10.892;2022-12-19T05:46:35;-2.10;99.90
33741;DHT22;20065;48.380;10.892;2022-12-19T05:49:21;-2.10;99.90
33741;DHT22;20065;48.380;10.892;2022-12-19T05:52:07;-2.00;99.90
33741;DHT22;20065;48.380;10.892;2022-12-19T05:54:54;-2.00;99.90
33741;DHT22;20065;48.380;10.892;2022-12-19T05:57:40;-1.90;99.90
33741;DHT22;20065;48.380;10.892;2022-12-19T06:00:26;-1.90;99.90
33741;DHT22;20065;48.380;10.892;2022-12-19T06:03:12;-1.90;99.90
33741;DHT22;20065;48.380;10.892;2022-12-19T06:06:04;-1.90;99.90
33741;DHT22;20065;48.380;10.892;2022-12-19T06:08:53;-1.90;99.90
33741;DHT22;20065;48.380;10.892;2022-12-19T06:11:39;-1.90;99.90
33741;DHT22;20065;48.380;10.892;2022-12-19T06:14:25;-1.80;99.90
33741;DHT22;20065;48.380;10.892;2022-12-19T06:17:11;-1.70;99.90
33741;DHT22;20065;48.380;10.892;2022-12-19T06:19:58;-1.60;99.90
33741;DHT22;20065;48.380;10.892;2022-12-19T06:22:44;-1.60;99.90
33741;DHT22;20065;48.380;10.892;2022-12-19T06:25:30;-1.50;99.90
33741;DHT22;20065;48.380;10.892;2022-12-19T06:28:16;-1.40;99.90
33741;DHT22;20065;48.380;10.892;2022-12-19T06:31:03;-1.50;99.90
33741;DHT22;20065;48.380;10.892;2022-12-19T06:33:50;-1.40;99.90
33741;DHT22;20065;48.380;10.892;2022-12-19T06:36:39;-1.50;99.90
33741;DHT22;20065;48.380;10.892;2022-12-19T06:39:28;-1.50;99.90
33741;DHT22;20065;48.380;10.892;2022-12-19T06:42:14;-1.50;99.90
33741;DHT22;20065;48.380;10.892;2022-12-19T06:45:09;-1.40;99.90
33741;DHT22;20065;48.380;10.892;2022-12-19T06:47:55;-1.40;99.90
33741;DHT22;20065;48.380;10.892;2022-12-19T06:50:42;-1.50;99.90
33741;DHT22;20065;48.380;10.892;2022-12-19T06:53:28;-1.50;99.90
33741;DHT22;20065;48.380;10.892;2022-12-19T06:56:15;-1.50;99.90
33741;DHT22;20065;48.380;10.892;2022-12-19T06:59:01;-1.50;99.90
33741;DHT22;20065;48.380;10.892;2022-12-19T07:02:03;-1.50;99.90
33741;DHT22;20065;48.380;10.892;2022-12-19T07:04:56;-1.50;99.90
33741;DHT22;20065;48.380;10.892;2022-12-19T07:07:44;-1.40;99.90
33741;DHT22;20065;48.380;10.892;2022-12-19T07:10:30;-1.30;99.90
33741;DHT22;20065;48.380;10.892;2022-12-19T07:13:16;-1.30;99.90
33741;DHT22;20065;48.380;10.892;2022-12-19T07:16:04;-1.20;99.90
33741;DHT22;20065;48.380;10.892;2022-12-19T07:18:50;-1.10;99.90
33741;DHT22;20065;48.380;10.892;2022-12-19T07:21:37;-1.10;99.90
33741;DHT22;20065;48.380;10.892;2022-12-19T07:24:23;-1.10;99.90
33741;DHT22;20065;48.380;10.892;2022-12-19T07:27:10;-1.10;99.90
33741;DHT22;20065;48.380;10.892;2022-12-19T07:29:56;-1.00;99.90
33741;DHT22;20065;48.380;10.892;2022-12-19T07:32:42;-1.00;99.90
33741;DHT22;20065;48.380;10.892;2022-12-19T07:35:29;-1.00;99.90
33741;DHT22;20065;48.380;10.892;2022-12-19T07:38:15;-1.00;99.90
33741;DHT22;20065;48.380;10.892;2022-12-19T07:41:01;-0.90;99.90
33741;DHT22;20065;48.380;10.892;2022-12-19T07:43:48;-1.00;99.90
33741;DHT22;20065;48.380;10.892;2022-12-19T07:46:34;-0.90;99.90
33741;DHT22;20065;48.380;10.892;2022-12-19T07:49:20;-0.90;99.90
33741;DHT22;20065;48.380;10.892;2022-12-19T07:52:06;-0.90;99.90
33741;DHT22;20065;48.380;10.892;2022-12-19T07:54:53;-0.70;99.90
33741;DHT22;20065;48.380;10.892;2022-12-19T07:57:39;-0.70;99.90
33741;DHT22;20065;48.380;10.892;2022-12-19T08:00:25;-0.70;99.90
33741;DHT22;20065;48.380;10.892;2022-12-19T08:03:12;-0.60;99.90
33741;DHT22;20065;48.380;10.892;2022-12-19T08:05:59;-0.40;99.90
33741;DHT22;20065;48.380;10.892;2022-12-19T08:08:46;-0.30;99.90
33741;DHT22;20065;48.380;10.892;2022-12-19T08:11:32;-0.20;99.90
33741;DHT22;20065;48.380;10.892;2022-12-19T08:14:18;-0.20;99.90
33741;DHT22;20065;48.380;10.892;2022-12-19T08:17:05;-0.10;99.90
33741;DHT22;20065;48.380;10.892;2022-12-19T08:19:51;-0.10;99.90
33741;DHT22;20065;48.380;10.892;2022-12-19T08:22:38;-0.10;99.90
33741;DHT22;20065;48.380;10.892;2022-12-19T08:25:24;-0.10;99.90
33741;DHT22;20065;48.380;10.892;2022-12-19T08:28:10;-0.10;99.90
33741;DHT22;20065;48.380;10.892;2022-12-19T08:30:56;0.00;99.90
33741;DHT22;20065;48.380;10.892;2022-12-19T08:33:42;0.10;99.90
33741;DHT22;20065;48.380;10.892;2022-12-19T08:36:29;0.20;99.90
33741;DHT22;20065;48.380;10.892;2022-12-19T08:39:15;0.10;99.90
33741;DHT22;20065;48.380;10.892;2022-12-19T08:42:01;0.20;99.90
33741;DHT22;20065;48.380;10.892;2022-12-19T08:44:47;0.30;99.90
33741;DHT22;20065;48.380;10.892;2022-12-19T08:47:34;0.40;99.90
33741;DHT22;20065;48.380;10.892;2022-12-19T08:50:20;0.50;99.90
33741;DHT22;20065;48.380;10.892;2022-12-19T08:53:06;0.50;99.90
33741;DHT22;20065;48.380;10.892;2022-12-19T08:56:00;0.60;99.90
33741;DHT22;20065;48.380;10.892;2022-12-19T08:58:49;0.70;99.90
33741;DHT22;20065;48.380;10.892;2022-12-19T09:01:36;0.80;99.90
33741;DHT22;20065;48.380;10.892;2022-12-19T09:04:22;0.90;99.90
33741;DHT22;20065;48.380;10.892;2022-12-19T09:07:08;0.90;99.90
33741;DHT22;20065;48.380;10.892;2022-12-19T09:09:54;1.00;99.90
33741;DHT22;20065;48.380;10.892;2022-12-19T09:12:40;1.10;99.90
33741;DHT22;20065;48.380;10.892;2022-12-19T09:15:26;1.20;99.90
33741;DHT22;20065;48.380;10.892;2022-12-19T09:18:12;1.30;99.90
33741;DHT22;20065;48.380;10.892;2022-12-19T09:21:01;1.30;99.90
33741;DHT22;20065;48.380;10.892;2022-12-19T09:23:58;1.40;99.90
33741;DHT22;20065;48.380;10.892;2022-12-19T09:26:51;1.60;99.90
33741;DHT22;20065;48.380;10.892;2022-12-19T09:29:38;1.80;99.90
33741;DHT22;20065;48.380;10.892;2022-12-19T09:32:24;1.90;99.90
33741;DHT22;20065;48.380;10.892;2022-12-19T09:35:11;2.20;99.90
33741;DHT22;20065;48.380;10.892;2022-12-19T09:37:57;2.40;99.90
33741;DHT22;20065;48.380;10.892;2022-12-19T09:41:08;2.30;99.90
33741;DHT22;20065;48.380;10.892;2022-12-19T09:49:57;2.50;99.90
33741;DHT22;20065;48.380;10.892;2022-12-19T09:52:49;2.50;99.90
33741;DHT22;20065;48.380;10.892;2022-12-19T09:55:40;2.60;99.90
33741;DHT22;20065;48.380;10.892;2022-12-19T09:58:35;2.50;99.90
33741;DHT22;20065;48.380;10.892;2022-12-19T10:01:47;2.50;99.90
33741;DHT22;20065;48.380;10.892;2022-12-19T10:04:35;2.50;99.90
33741;DHT22;20065;48.380;10.892;2022-12-19T10:07:24;2.40;99.90
33741;DHT22;20065;48.380;10.892;2022-12-19T10:10:46;2.40;99.90
33741;DHT22;20065;48.380;10.892;2022-12-19T10:19:27;2.60;99.90
33741;DHT22;20065;48.380;10.892;2022-12-19T10:22:27;2.60;99.90
33741;DHT22;20065;48.380;10.892;2022-12-19T10:35:35;3.50;99.90
33741;DHT22;20065;48.380;10.892;2022-12-19T10:38:36;3.70;99.90
33741;DHT22;20065;48.380;10.892;2022-12-19T10:41:26;4.00;99.90
33741;DHT22;20065;48.380;10.892;2022-12-19T10:44:13;4.10;99.90
33741;DHT22;20065;48.380;10.892;2022-12-19T10:47:00;4.10;99.90
33741;DHT22;20065;48.380;10.892;2022-12-19T10:49:46;4.10;99.90
33741;DHT22;20065;48.380;10.892;2022-12-19T10:52:47;4.10;99.90
33741;DHT22;20065;48.380;10.892;2022-12-19T10:58:36;4.10;99.90
33741;DHT22;20065;48.380;10.892;2022-12-19T11:01:34;4.20;99.90
33741;DHT22;20065;48.380;10.892;2022-12-19T11:07:20;4.20;99.90
33741;DHT22;20065;48.380;10.892;2022-12-19T11:10:33;4.30;99.90
33741;DHT22;20065;48.380;10.892;2022-12-19T11:13:24;4.30;99.90
33741;DHT22;20065;48.380;10.892;2022-12-19T11:16:12;4.40;99.90
33741;DHT22;20065;48.380;10.892;2022-12-19T11:18:58;4.50;99.90
33741;DHT22;20065;48.380;10.892;2022-12-19T11:21:44;4.50;99.90
33741;DHT22;20065;48.380;10.892;2022-12-19T11:24:42;4.50;99.90
33741;DHT22;20065;48.380;10.892;2022-12-19T11:27:42;4.30;99.90
33741;DHT22;20065;48.380;10.892;2022-12-19T11:30:28;4.20;99.90
33741;DHT22;20065;48.380;10.892;2022-12-19T11:33:17;4.30;99.90
33741;DHT22;20065;48.380;10.892;2022-12-19T11:36:05;4.30;99.90
33741;DHT22;20065;48.380;10.892;2022-12-19T11:38:52;4.30;99.90
33741;DHT22;20065;48.380;10.892;2022-12-19T11:41:44;4.60;99.90
33741;DHT22;20065;48.380;10.892;2022-12-19T11:44:43;4.70;99.90
33741;DHT22;20065;48.380;10.892;2022-12-19T11:47:39;4.90;99.90
33741;DHT22;20065;48.380;10.892;2022-12-19T11:50:30;5.00;99.90
33741;DHT22;20065;48.380;10.892;2022-12-19T11:53:28;5.10;99.90
33741;DHT22;20065;48.380;10.892;2022-12-19T11:56:18;5.10;99.90
33741;DHT22;20065;48.380;10.892;2022-12-19T12:02:36;5.10;99.90
33741;DHT22;20065;48.380;10.892;2022-12-19T12:05:45;5.20;99.90
33741;DHT22;20065;48.380;10.892;2022-12-19T12:08:40;5.30;99.90
33741;DHT22;20065;48.380;10.892;2022-12-19T12:21:17;5.20;99.90
33741;DHT22;20065;48.380;10.892;2022-12-19T12:27:37;5.10;99.90
33741;DHT22;20065;48.380;10.892;2022-12-19T12:30:38;5.00;99.90
33741;DHT22;20065;48.380;10.892;2022-12-19T12:36:47;5.00;99.90
33741;DHT22;20065;48.380;10.892;2022-12-19T12:42:52;5.00;99.90
33741;DHT22;20065;48.380;10.892;2022-12-19T12:45:41;5.00;99.90
33741;DHT22;20065;48.380;10.892;2022-12-19T12:48:41;5.00;99.90
33741;DHT22;20065;48.380;10.892;2022-12-19T12:51:29;5.00;99.90
33741;DHT22;20065;48.380;10.892;2022-12-19T12:54:19;5.20;99.90
33741;DHT22;20065;48.380;10.892;2022-12-19T13:00:22;5.20;99.90
33741;DHT22;20065;48.380;10.892;2022-12-19T13:03:16;4.90;99.90
33741;DHT22;20065;48.380;10.892;2022-12-19T13:06:10;5.00;99.90
33741;DHT22;20065;48.380;10.892;2022-12-19T13:15:41;4.90;99.90
33741;DHT22;20065;48.380;10.892;2022-12-19T13:18:35;4.90;99.90
33741;DHT22;20065;48.380;10.892;2022-12-19T13:21:24;4.80;99.90
33741;DHT22;20065;48.380;10.892;2022-12-19T13:24:20;4.80;99.90
33741;DHT22;20065;48.380;10.892;2022-12-19T13:35:45;4.90;99.90
33741;DHT22;20065;48.380;10.892;2022-12-19T13:38:45;4.90;99.90
33741;DHT22;20065;48.380;10.892;2022-12-19T13:41:40;4.80;99.90
33741;DHT22;20065;48.380;10.892;2022-12-19T13:44:47;4.70;99.90
33741;DHT22;20065;48.380;10.892;2022-12-19T13:47:38;4.60;99.90
33741;DHT22;20065;48.380;10.892;2022-12-19T13:50:35;4.50;99.90
33741;DHT22;20065;48.380;10.892;2022-12-19T13:53:25;4.50;99.90
33741;DHT22;20065;48.380;10.892;2022-12-19T13:56:16;4.40;99.90
33741;DHT22;20065;48.380;10.892;2022-12-19T13:59:04;4.30;99.90
33741;DHT22;20065;48.380;10.892;2022-12-19T14:01:51;4.30;99.90
33741;DHT22;20065;48.380;10.892;2022-12-19T14:04:39;4.30;99.90
33741;DHT22;20065;48.380;10.892;2022-12-19T14:07:38;4.30;99.90
33741;DHT22;20065;48.380;10.892;2022-12-19T14:10:31;4.20;99.90
33741;DHT22;20065;48.380;10.892;2022-12-19T14:13:21;4.10;99.90
33741;DHT22;20065;48.380;10.892;2022-12-19T14:16:29;4.00;99.90
33741;DHT22;20065;48.380;10.892;2022-12-19T14:19:25;3.90;99.90
33741;DHT22;20065;48.380;10.892;2022-12-19T14:25:08;3.90;99.90
33741;DHT22;20065;48.380;10.892;2022-12-19T14:28:02;3.80;99.90
33741;DHT22;20065;48.380;10.892;2022-12-19T14:30:59;3.70;99.90
33741;DHT22;20065;48.380;10.892;2022-12-19T14:33:50;3.60;99.90
33741;DHT22;20065;48.380;10.892;2022-12-19T14:36:39;3.60;99.90
33741;DHT22;20065;48.380;10.892;2022-12-19T14:39:33;3.50;99.90
33741;DHT22;20065;48.380;10.892;2022-12-19T14:42:26;3.40;99.90
33741;DHT22;20065;48.380;10.892;2022-12-19T14:48:32;3.30;99.90
33741;DHT22;20065;48.380;10.892;2022-12-19T14:54:19;3.00;99.90
33741;DHT22;20065;48.380;10.892;2022-12-19T14:57:16;2.90;99.90
33741;DHT22;20065;48.380;10.892;2022-12-19T15:03:31;2.80;99.90
33741;DHT22;20065;48.380;10.892;2022-12-19T15:06:19;2.80;99.90
33741;DHT22;20065;48.380;10.892;2022-12-19T15:09:11;2.70;99.90
33741;DHT22;20065;48.380;10.892;2022-12-19T15:12:11;2.70;99.90
33741;DHT22;20065;48.380;10.892;2022-12-19T15:15:19;2.70;99.90
33741;DHT22;20065;48.380;10.892;2022-12-19T15:21:11;2.50;99.90
33741;DHT22;20065;48.380;10.892;2022-12-19T15:23:58;2.40;99.90
33741;DHT22;20065;48.380;10.892;2022-12-19T15:26:51;2.30;99.90
33741;DHT22;20065;48.380;10.892;2022-12-19T15:29:38;2.30;99.90
33741;DHT22;20065;48.380;10.892;2022-12-19T15:32:25;2.30;99.90
33741;DHT22;20065;48.380;10.892;2022-12-19T15:35:16;2.20;99.90
33741;DHT22;20065;48.380;10.892;2022-12-19T15:38:02;2.20;99.90
33741;DHT22;20065;48.380;10.892;2022-12-19T15:40:48;2.20;99.90
33741;DHT22;20065;48.380;10.892;2022-12-19T15:43:35;2.20;99.90
33741;DHT22;20065;48.380;10.892;2022-12-19T15:46:29;2.20;99.90
33741;DHT22;20065;48.380;10.892;2022-12-19T15:49:19;2.20;99.90
33741;DHT22;20065;48.380;10.892;2022-12-19T15:52:17;2.30;99.90
33741;DHT22;20065;48.380;10.892;2022-12-19T15:55:04;2.20;99.90
33741;DHT22;20065;48.380;10.892;2022-12-19T15:58:00;2.20;99.90
33741;DHT22;20065;48.380;10.892;2022-12-19T16:00:52;2.20;99.90
33741;DHT22;20065;48.380;10.892;2022-12-19T16:03:38;2.20;99.90
33741;DHT22;20065;48.380;10.892;2022-12-19T16:06:25;2.20;99.90
33741;DHT22;20065;48.380;10.892;2022-12-19T16:09:26;2.10;99.90
33741;DHT22;20065;48.380;10.892;2022-12-19T16:12:15;2.10;99.90
33741;DHT22;20065;48.380;10.892;2022-12-19T16:15:03;2.10;99.90
33741;DHT22;20065;48.380;10.892;2022-12-19T16:17:49;2.10;99.90
33741;DHT22;20065;48.380;10.892;2022-12-19T16:20:39;2.10;99.90
33741;DHT22;20065;48.380;10.892;2022-12-19T16:23:26;2.10;99.90
33741;DHT22;20065;48.380;10.892;2022-12-19T16:26:40;2.10;99.90
33741;DHT22;20065;48.380;10.892;2022-12-19T16:29:28;2.10;99.90
33741;DHT22;20065;48.380;10.892;2022-12-19T16:32:16;2.00;99.90
33741;DHT22;20065;48.380;10.892;2022-12-19T16:35:10;2.00;99.90
33741;DHT22;20065;48.380;10.892;2022-12-19T16:37:57;2.00;99.90
33741;DHT22;20065;48.380;10.892;2022-12-19T16:40:45;1.90;99.90
33741;DHT22;20065;48.380;10.892;2022-12-19T16:43:40;1.90;99.90
33741;DHT22;20065;48.380;10.892;2022-12-19T16:46:27;1.90;99.90
33741;DHT22;20065;48.380;10.892;2022-12-19T16:49:20;1.90;99.90
33741;DHT22;20065;48.380;10.892;2022-12-19T16:52:10;1.90;99.90
33741;DHT22;20065;48.380;10.892;2022-12-19T16:54:57;2.00;99.90
33741;DHT22;20065;48.380;10.892;2022-12-19T16:57:45;1.90;99.90
33741;DHT22;20065;48.380;10.892;2022-12-19T17:00:34;2.00;99.90
33741;DHT22;20065;48.380;10.892;2022-12-19T17:03:39;2.10;99.90
33741;DHT22;20065;48.380;10.892;2022-12-19T17:06:26;2.10;99.90
33741;DHT22;20065;48.380;10.892;2022-12-19T17:09:14;2.10;99.90
33741;DHT22;20065;48.380;10.892;2022-12-19T17:12:01;2.10;99.90
33741;DHT22;20065;48.380;10.892;2022-12-19T17:14:47;2.10;99.90
33741;DHT22;20065;48.380;10.892;2022-12-19T17:17:33;2.10;99.90
33741;DHT22;20065;48.380;10.892;2022-12-19T17:20:22;2.20;99.90
33741;DHT22;20065;48.380;10.892;2022-12-19T17:23:15;2.20;99.90
33741;DHT22;20065;48.380;10.892;2022-12-19T17:26:01;2.30;99.90
33741;DHT22;20065;48.380;10.892;2022-12-19T17:28:51;2.20;99.90
33741;DHT22;20065;48.380;10.892;2022-12-19T17:31:38;2.20;99.90
33741;DHT22;20065;48.380;10.892;2022-12-19T17:34:28;2.20;99.90
33741;DHT22;20065;48.380;10.892;2022-12-19T17:37:15;2.20;99.90
33741;DHT22;20065;48.380;10.892;2022-12-19T17:40:02;2.10;99.90
33741;DHT22;20065;48.380;10.892;2022-12-19T17:42:49;2.10;99.90
33741;DHT22;20065;48.380;10.892;2022-12-19T17:45:35;2.10;99.90
33741;DHT22;20065;48.380;10.892;2022-12-19T17:48:28;2.10;99.90
33741;DHT22;20065;48.380;10.892;2022-12-19T17:51:16;2.10;99.90
33741;DHT22;20065;48.380;10.892;2022-12-19T17:54:03;2.00;99.90
33741;DHT22;20065;48.380;10.892;2022-12-19T17:56:49;2.10;99.90
33741;DHT22;20065;48.380;10.892;2022-12-19T17:59:35;2.00;99.90
33741;DHT22;20065;48.380;10.892;2022-12-19T18:02:22;2.00;99.90
33741;DHT22;20065;48.380;10.892;2022-12-19T18:05:21;2.00;99.90
33741;DHT22;20065;48.380;10.892;2022-12-19T18:08:21;2.00;99.90
33741;DHT22;20065;48.380;10.892;2022-12-19T18:11:20;2.00;99.90
33741;DHT22;20065;48.380;10.892;2022-12-19T18:14:06;2.10;99.90
33741;DHT22;20065;48.380;10.892;2022-12-19T18:16:52;2.10;99.90
33741;DHT22;20065;48.380;10.892;2022-12-19T18:19:38;2.10;99.90
33741;DHT22;20065;48.380;10.892;2022-12-19T18:22:25;2.10;99.90
33741;DHT22;20065;48.380;10.892;2022-12-19T18:25:20;2.10;99.90
33741;DHT22;20065;48.380;10.892;2022-12-19T18:28:07;2.20;99.90
33741;DHT22;20065;48.380;10.892;2022-12-19T18:30:58;2.10;99.90
33741;DHT22;20065;48.380;10.892;2022-12-19T18:33:46;2.20;99.90
33741;DHT22;20065;48.380;10.892;2022-12-19T18:36:37;2.20;99.90
33741;DHT22;20065;48.380;10.892;2022-12-19T18:39:27;2.20;99.90
33741;DHT22;20065;48.380;10.892;2022-12-19T18:42:20;2.20;99.90
33741;DHT22;20065;48.380;10.892;2022-12-19T18:45:18;2.20;99.90
33741;DHT22;20065;48.380;10.892;2022-12-19T18:48:06;2.20;99.90
33741;DHT22;20065;48.380;10.892;2022-12-19T18:50:54;2.10;99.90
33741;DHT22;20065;48.380;10.892;2022-12-19T18:53:41;2.10;99.90
33741;DHT22;20065;48.380;10.892;2022-12-19T18:56:27;2.10;99.90
33741;DHT22;20065;48.380;10.892;2022-12-19T18:59:14;2.10;99.90
33741;DHT22;20065;48.380;10.892;2022-12-19T19:02:00;2.10;99.90
33741;DHT22;20065;48.380;10.892;2022-12-19T19:04:46;2.10;99.90
33741;DHT22;20065;48.380;10.892;2022-12-19T19:07:32;2.10;99.90
33741;DHT22;20065;48.380;10.892;2022-12-19T19:13:25;2.10;99.90
33741;DHT22;20065;48.380;10.892;2022-12-19T19:16:23;2.20;99.90
33741;DHT22;20065;48.380;10.892;2022-12-19T19:19:13;2.20;99.90
33741;DHT22;20065;48.380;10.892;2022-12-19T19:22:01;2.20;99.90
33741;DHT22;20065;48.380;10.892;2022-12-19T19:24:47;2.20;99.90
33741;DHT22;20065;48.380;10.892;2022-12-19T19:27:33;2.20;99.90
33741;DHT22;20065;48.380;10.892;2022-12-19T19:30:19;2.30;99.90
33741;DHT22;20065;48.380;10.892;2022-12-19T19:33:10;2.30;99.90
33741;DHT22;20065;48.380;10.892;2022-12-19T19:36:00;2.30;99.90
33741;DHT22;20065;48.380;10.892;2022-12-19T19:38:50;2.30;99.90
33741;DHT22;20065;48.380;10.892;2022-12-19T19:41:38;2.30;99.90
33741;DHT22;20065;48.380;10.892;2022-12-19T19:44:24;2.20;99.90
33741;DHT22;20065;48.380;10.892;2022-12-19T19:47:10;2.20;99.90
33741;DHT22;20065;48.380;10.892;2022-12-19T19:49:57;2.20;99.90
33741;DHT22;20065;48.380;10.892;2022-12-19T19:52:44;2.20;99.90
33741;DHT22;20065;48.380;10.892;2022-12-19T19:55:31;2.30;99.90